createdAt,value
2023-02-28T00:00:57.640Z,19.34
2023-02-28T00:01:57.836Z,19.34
2023-02-28T00:02:57.757Z,19.34
2023-02-28T00:03:57.736Z,19.33
2023-02-28T00:04:57.775Z,19.34
2023-02-28T00:05:57.802Z,19.34
2023-02-28T00:06:57.840Z,19.34
2023-02-28T00:07:57.877Z,19.33
2023-02-28T00:08:58.212Z,19.34
2023-02-28T00:09:57.963Z,19.34
2023-02-28T00:10:57.981Z,19.33
2023-02-28T00:11:58.106Z,19.33
2023-02-28T00:12:58.047Z,19.34
2023-02-28T00:13:58.085Z,19.33
2023-02-28T00:14:58.227Z,19.33
2023-02-28T00:15:58.169Z,19.33
2023-02-28T00:16:58.222Z,19.33
2023-02-28T00:17:58.226Z,19.32
2023-02-28T00:18:58.264Z,19.32
2023-02-28T00:19:58.289Z,19.32
2023-02-28T00:20:58.337Z,19.32
2023-02-28T00:21:58.359Z,19.32
2023-02-28T00:22:58.392Z,19.31
2023-02-28T00:23:58.430Z,19.31
2023-02-28T00:24:58.466Z,19.31
2023-02-28T00:25:58.502Z,19.31
2023-02-28T00:26:58.534Z,19.31
2023-02-28T00:27:58.561Z,19.31
2023-02-28T00:28:58.595Z,19.31
2023-02-28T00:29:58.652Z,19.31
2023-02-28T00:30:58.790Z,19.31
2023-02-28T00:31:58.758Z,19.30
2023-02-28T00:32:58.758Z,19.31
2023-02-28T00:33:58.802Z,19.31
2023-02-28T00:34:58.890Z,19.30
2023-02-28T00:35:58.864Z,19.31
2023-02-28T00:36:58.896Z,19.31
2023-02-28T00:37:59.000Z,19.31
2023-02-28T00:38:58.974Z,19.31
2023-02-28T00:39:59.013Z,19.30
2023-02-28T00:40:59.065Z,19.30
2023-02-28T00:41:59.095Z,19.31
2023-02-28T00:42:59.127Z,19.30
2023-02-28T00:43:59.173Z,19.30
2023-02-28T00:44:59.210Z,19.30
2023-02-28T00:45:59.286Z,19.30
2023-02-28T00:46:59.295Z,19.30
2023-02-28T00:47:59.324Z,19.30
2023-02-28T00:48:59.362Z,19.29
2023-02-28T00:49:59.446Z,19.29
2023-02-28T00:50:59.470Z,19.29
2023-02-28T00:51:59.477Z,19.29
2023-02-28T00:52:59.509Z,19.29
2023-02-28T00:53:59.541Z,19.29
2023-02-28T00:54:59.583Z,19.29
2023-02-28T00:55:59.697Z,19.29
2023-02-28T00:56:59.655Z,19.28
2023-02-28T00:57:59.696Z,19.29
2023-02-28T00:58:59.736Z,19.29
2023-02-28T00:59:59.778Z,19.29
2023-02-28T01:00:59.840Z,19.29
2023-02-28T01:01:59.857Z,19.29
2023-02-28T01:02:59.909Z,19.28
2023-02-28T01:03:59.951Z,19.28
2023-02-28T01:04:59.989Z,19.28
2023-02-28T01:06:00.036Z,19.28
2023-02-28T01:07:00.079Z,19.28
2023-02-28T01:08:00.138Z,19.28
2023-02-28T01:09:00.143Z,19.28
2023-02-28T01:10:00.190Z,19.28
2023-02-28T01:11:00.238Z,19.28
2023-02-28T01:12:00.278Z,19.28
2023-02-28T01:13:00.322Z,19.28
2023-02-28T01:14:00.359Z,19.27
2023-02-28T01:15:00.399Z,19.27
2023-02-28T01:16:00.456Z,19.27
2023-02-28T01:17:00.490Z,19.27
2023-02-28T01:18:00.530Z,19.27
2023-02-28T01:19:00.555Z,19.28
2023-02-28T04:10:05.010Z,19.66
2023-02-28T04:11:05.023Z,19.65
2023-02-28T04:12:05.055Z,19.66
2023-02-28T04:13:05.037Z,19.66
2023-02-28T04:14:05.058Z,19.66
2023-02-28T04:15:05.068Z,19.66
2023-02-28T04:16:05.108Z,19.66
2023-02-28T04:17:05.089Z,19.66
2023-02-28T04:18:05.095Z,19.66
2023-02-28T04:19:05.120Z,19.66
2023-02-28T04:20:05.104Z,19.66
2023-02-28T04:21:05.171Z,19.66
2023-02-28T04:22:05.123Z,19.67
2023-02-28T04:38:05.200Z,19.68
2023-02-28T04:49:05.237Z,19.70
2023-02-28T04:50:05.248Z,19.70
2023-02-28T04:51:05.241Z,19.70
2023-02-28T04:52:05.243Z,19.70
2023-02-28T04:53:05.245Z,19.70
2023-02-28T04:54:05.254Z,19.71
2023-02-28T04:55:05.260Z,19.70
2023-02-28T04:56:05.247Z,19.71
2023-02-28T04:57:05.259Z,19.71
2023-02-28T04:58:05.293Z,19.71
2023-02-28T04:59:05.327Z,19.71
2023-02-28T05:00:05.264Z,19.71
2023-02-28T05:01:05.269Z,19.72
2023-02-28T05:02:05.310Z,19.71
2023-02-28T05:03:05.269Z,19.71
2023-02-28T05:04:05.276Z,19.71
2023-02-28T05:05:05.333Z,19.71
2023-02-28T05:22:05.284Z,19.72
2023-02-28T05:23:05.281Z,19.73
2023-02-28T05:24:05.293Z,19.72
2023-02-28T05:25:05.298Z,19.72
2023-02-28T05:26:05.310Z,19.72
2023-02-28T05:27:05.306Z,19.72
2023-02-28T05:28:05.324Z,19.72
2023-02-28T05:30:05.313Z,19.72
2023-02-28T05:31:05.342Z,19.72
2023-02-28T05:32:05.430Z,19.73
2023-02-28T05:33:05.325Z,19.73
2023-02-28T05:58:05.365Z,19.73
2023-02-28T07:43:05.918Z,20.51
2023-02-28T07:45:05.936Z,20.47
2023-02-28T07:46:06.114Z,20.46
2023-02-28T07:47:06.020Z,20.44
2023-02-28T07:48:05.885Z,20.43
2023-02-28T07:49:05.879Z,20.41
2023-02-28T07:50:05.848Z,20.40
2023-02-28T07:51:05.813Z,20.39
2023-02-28T07:52:05.809Z,20.38
2023-02-28T07:53:05.770Z,20.37
2023-02-28T07:54:05.740Z,20.37
2023-02-28T07:55:05.722Z,20.36
2023-02-28T07:56:05.762Z,20.36
2023-02-28T07:57:05.659Z,20.35
2023-02-28T07:58:05.639Z,20.34
2023-02-28T07:59:05.615Z,20.35
2023-02-28T08:00:05.584Z,20.34
2023-02-28T08:01:05.553Z,20.34
2023-02-28T08:02:05.548Z,20.34
2023-02-28T08:03:06.359Z,20.33
2023-02-28T08:04:05.462Z,20.34
2023-02-28T08:05:05.470Z,20.33
2023-02-28T08:06:05.462Z,20.33
2023-02-28T08:07:05.386Z,20.32
2023-02-28T08:08:05.355Z,20.32
2023-02-28T08:09:05.336Z,20.33
2023-02-28T08:10:05.389Z,20.32
2023-02-28T08:11:05.293Z,20.32
2023-02-28T08:12:05.257Z,20.32
2023-02-28T08:13:05.304Z,20.32
2023-02-28T08:14:05.215Z,20.31
2023-02-28T08:15:05.184Z,20.31
2023-02-28T08:16:05.205Z,20.31
2023-02-28T08:17:05.128Z,20.31
2023-02-28T08:18:05.099Z,20.31
2023-02-28T08:19:05.084Z,20.30
2023-02-28T08:20:05.057Z,20.30
2023-02-28T08:21:05.034Z,20.30
2023-02-28T08:22:05.020Z,20.31
2023-02-28T08:23:05.009Z,20.33
2023-02-28T08:24:04.964Z,20.39
2023-02-28T08:25:04.977Z,20.44
2023-02-28T08:26:04.989Z,20.50
2023-02-28T08:27:05.040Z,20.55
2023-02-28T08:28:05.077Z,20.59
2023-02-28T08:29:05.116Z,20.65
2023-02-28T08:30:05.150Z,20.72
2023-02-28T08:31:05.173Z,20.78
2023-02-28T08:32:05.310Z,20.83
2023-02-28T08:33:05.246Z,20.87
2023-02-28T08:34:05.220Z,20.92
2023-02-28T08:35:05.237Z,20.96
2023-02-28T08:36:06.013Z,21.01
2023-02-28T08:37:05.240Z,21.04
2023-02-28T08:38:05.875Z,21.08
2023-02-28T08:39:05.236Z,21.12
2023-02-28T08:40:05.284Z,21.14
2023-02-28T08:41:05.205Z,21.18
2023-02-28T08:42:07.693Z,21.21
2023-02-28T08:43:05.172Z,21.24
2023-02-28T08:44:05.127Z,21.26
2023-02-28T08:45:06.095Z,21.29
2023-02-28T08:46:05.106Z,21.32
2023-02-28T08:47:05.020Z,21.34
2023-02-28T08:48:04.983Z,21.36
2023-02-28T08:49:04.941Z,21.38
2023-02-28T08:50:04.929Z,21.40
2023-02-28T08:51:07.736Z,21.42
2023-02-28T08:52:04.846Z,21.44
2023-02-28T08:53:04.802Z,21.45
2023-02-28T08:54:04.760Z,21.47
2023-02-28T08:55:04.747Z,21.47
2023-02-28T08:56:04.688Z,21.39
2023-02-28T08:57:04.663Z,21.27
2023-02-28T08:58:04.636Z,21.08
2023-02-28T08:59:04.609Z,20.87
2023-02-28T09:00:04.584Z,20.81
2023-02-28T09:01:04.618Z,20.82
2023-02-28T09:02:04.541Z,20.85
2023-02-28T09:03:04.508Z,20.89
2023-02-28T09:04:04.481Z,20.92
2023-02-28T09:05:05.448Z,20.96
2023-02-28T09:06:04.413Z,21.00
2023-02-28T09:07:04.393Z,21.04
2023-02-28T09:08:04.352Z,21.08
2023-02-28T09:09:04.336Z,21.13
2023-02-28T09:10:04.305Z,21.18
2023-02-28T09:11:04.282Z,21.21
2023-02-28T09:12:04.244Z,21.23
2023-02-28T09:13:04.408Z,21.26
2023-02-28T09:14:04.203Z,21.25
2023-02-28T09:15:04.186Z,21.26
2023-02-28T09:16:04.138Z,21.29
2023-02-28T09:18:04.093Z,21.31
2023-02-28T09:19:04.053Z,21.31
2023-02-28T09:20:04.024Z,21.29
2023-02-28T09:21:03.973Z,21.16
2023-02-28T09:22:03.972Z,21.05
2023-02-28T09:23:03.926Z,20.94
2023-02-28T09:24:03.901Z,20.87
2023-02-28T09:25:03.905Z,20.79
2023-02-28T09:26:03.949Z,20.81
2023-02-28T09:27:05.592Z,20.83
2023-02-28T09:28:04.067Z,20.86
2023-02-28T09:29:04.029Z,20.90
2023-02-28T09:30:04.051Z,20.95
2023-02-28T09:31:05.097Z,20.99
2023-02-28T09:32:04.054Z,21.04
2023-02-28T09:33:03.973Z,21.09
2023-02-28T09:34:04.044Z,21.13
2023-02-28T09:35:03.915Z,21.19
2023-02-28T09:36:03.930Z,21.22
2023-02-28T09:37:03.904Z,21.27
2023-02-28T09:38:03.837Z,21.30
2023-02-28T09:39:03.824Z,21.34
2023-02-28T09:40:03.770Z,21.37
2023-02-28T09:41:03.818Z,21.39
2023-02-28T09:42:03.712Z,21.42
2023-02-28T09:43:03.693Z,21.45
2023-02-28T09:44:03.659Z,21.48
2023-02-28T09:45:03.626Z,21.51
2023-02-28T09:46:03.611Z,21.54
2023-02-28T09:47:03.547Z,21.57
2023-02-28T09:48:03.518Z,21.59
2023-02-28T09:49:03.463Z,21.62
2023-02-28T09:50:03.446Z,21.64
2023-02-28T09:51:03.496Z,21.66
2023-02-28T09:52:03.378Z,21.69
2023-02-28T10:11:03.407Z,22.09
2023-02-28T10:26:03.906Z,22.05
2023-02-28T10:45:03.920Z,22.61
2023-02-28T13:17:58.996Z,23.82
2023-02-28T13:18:59.024Z,23.84
2023-02-28T13:19:58.972Z,23.86
2023-02-28T13:20:58.956Z,23.88
2023-02-28T13:21:58.933Z,23.90
2023-02-28T13:22:58.913Z,23.91
2023-02-28T13:23:58.917Z,23.93
2023-02-28T13:24:59.473Z,23.95
2023-02-28T13:25:59.512Z,23.97
2023-02-28T13:26:58.809Z,23.99
2023-02-28T13:27:58.798Z,24.01
2023-02-28T13:28:58.775Z,24.03
2023-02-28T13:29:58.761Z,24.06
2023-02-28T13:30:58.768Z,24.09
2023-02-28T13:31:58.717Z,24.12
2023-02-28T13:32:59.391Z,24.15
2023-02-28T13:33:58.724Z,24.18
2023-02-28T13:34:58.613Z,24.18
2023-02-28T13:35:58.616Z,24.17
2023-02-28T13:36:58.584Z,24.15
2023-02-28T13:37:58.513Z,24.13
2023-02-28T13:38:58.482Z,24.11
2023-02-28T13:39:58.476Z,24.10
2023-02-28T13:40:58.442Z,24.09
2023-02-28T13:41:58.389Z,24.08
2023-02-28T13:42:58.374Z,24.07
2023-02-28T13:43:58.327Z,24.06
2023-02-28T13:44:58.303Z,24.07
2023-02-28T13:45:58.282Z,24.07
2023-02-28T13:46:58.303Z,24.08
2023-02-28T13:47:58.219Z,24.08
2023-02-28T13:48:58.191Z,24.09
2023-02-28T13:49:58.163Z,24.10
2023-02-28T13:50:58.127Z,24.10
2023-02-28T13:51:58.104Z,24.10
2023-02-28T13:52:58.075Z,24.11
2023-02-28T13:53:58.043Z,24.14
2023-02-28T13:54:58.006Z,24.14
2023-02-28T13:55:57.973Z,24.17
2023-02-28T13:56:57.929Z,24.19
2023-02-28T13:57:57.893Z,24.22
2023-02-28T13:58:57.847Z,24.27
2023-02-28T13:59:57.799Z,24.34
2023-02-28T14:00:03.376Z,24.34
2023-02-28T14:00:13.407Z,24.37
2023-02-28T14:09:18.110Z,25.48
2023-02-28T14:10:18.042Z,25.55
2023-02-28T14:11:17.971Z,25.60
2023-02-28T14:12:17.900Z,25.62
2023-02-28T14:13:17.824Z,25.63
2023-02-28T14:14:17.837Z,25.59
2023-02-28T14:15:17.686Z,25.52
2023-02-28T14:16:17.615Z,25.42
2023-02-28T14:17:17.545Z,25.33
2023-02-28T14:18:17.467Z,25.28
2023-02-28T14:24:17.071Z,24.77
2023-02-28T14:52:15.326Z,23.89
2023-02-28T14:53:15.257Z,23.85
2023-02-28T14:54:15.210Z,23.79
2023-02-28T14:55:15.151Z,23.74
2023-02-28T14:56:15.068Z,23.72
2023-02-28T14:57:15.000Z,23.70
2023-02-28T14:58:14.934Z,23.69
2023-02-28T14:59:14.880Z,23.66
2023-02-28T15:00:14.881Z,23.62
2023-02-28T15:01:14.883Z,23.56
2023-02-28T15:02:14.873Z,23.50
2023-02-28T15:03:14.884Z,23.46
2023-02-28T15:19:14.272Z,22.93
2023-02-28T15:20:14.298Z,22.89
2023-02-28T15:22:14.195Z,22.83
2023-02-28T15:23:14.972Z,22.81
2023-02-28T15:24:14.076Z,22.79
2023-02-28T15:25:14.051Z,22.75
2023-02-28T15:26:14.028Z,22.73
2023-02-28T15:27:13.976Z,22.70
2023-02-28T15:28:13.944Z,22.68
2023-02-28T15:29:13.914Z,22.67
2023-02-28T15:30:13.880Z,22.64
2023-02-28T15:31:13.902Z,22.62
2023-02-28T15:32:13.967Z,22.61
2023-02-28T15:33:13.804Z,22.59
2023-02-28T15:34:13.800Z,22.57
2023-02-28T15:35:13.771Z,22.54
2023-02-28T15:36:13.824Z,22.52
2023-02-28T15:38:13.753Z,22.49
2023-02-28T15:45:13.667Z,22.36
2023-02-28T15:47:13.667Z,22.33
2023-02-28T15:48:14.548Z,22.32
2023-02-28T15:49:13.668Z,22.30
2023-02-28T15:50:13.660Z,22.28
2023-02-28T15:51:13.672Z,22.26
2023-02-28T15:52:13.668Z,22.24
2023-02-28T16:09:13.958Z,21.99
2023-02-28T16:12:14.023Z,21.94
2023-02-28T16:13:14.049Z,21.94
2023-02-28T16:14:14.123Z,21.92
2023-02-28T16:15:14.072Z,21.91
2023-02-28T16:16:14.106Z,21.90
2023-02-28T16:17:14.117Z,21.89
2023-02-28T16:18:14.170Z,21.88
2023-02-28T16:19:14.147Z,21.86
2023-02-28T16:20:14.158Z,21.85
2023-02-28T16:21:14.169Z,21.85
2023-02-28T16:22:14.184Z,21.83
2023-02-28T16:24:14.241Z,21.80
2023-02-28T16:25:14.205Z,21.79
2023-02-28T16:26:14.200Z,21.78
2023-02-28T16:27:14.256Z,21.77
2023-02-28T16:28:14.207Z,21.76
2023-02-28T16:29:14.153Z,21.75
2023-02-28T16:31:15.300Z,21.73
2023-02-28T16:32:14.165Z,21.71
2023-02-28T16:33:14.106Z,21.70
2023-02-28T16:34:14.070Z,21.69
2023-02-28T16:35:14.076Z,21.68
2023-02-28T16:36:14.071Z,21.68
2023-02-28T16:37:14.064Z,21.66
2023-02-28T16:38:14.013Z,21.65
2023-02-28T16:39:13.942Z,21.64
2023-02-28T16:40:13.912Z,21.63
2023-02-28T16:41:13.868Z,21.61
2023-02-28T16:42:13.840Z,21.60
2023-02-28T16:43:13.794Z,21.58
2023-02-28T16:44:13.772Z,21.57
2023-02-28T16:45:14.543Z,21.56
2023-02-28T16:46:13.768Z,21.55
2023-02-28T16:47:13.684Z,21.53
2023-02-28T16:48:13.643Z,21.51
2023-02-28T16:49:13.607Z,21.50
2023-02-28T16:50:13.587Z,21.50
2023-02-28T16:51:13.591Z,21.47
2023-02-28T16:52:13.540Z,21.46
2023-02-28T16:53:13.512Z,21.45
2023-02-28T16:54:13.490Z,21.44
2023-02-28T16:55:13.476Z,21.43
2023-02-28T16:56:13.453Z,21.42
2023-02-28T16:57:13.443Z,21.41
2023-02-28T16:58:13.423Z,21.40
2023-02-28T16:59:13.383Z,21.38
2023-02-28T17:00:13.371Z,21.38
2023-02-28T17:01:13.447Z,21.36
2023-02-28T17:02:13.587Z,21.35
2023-02-28T17:03:16.378Z,21.35
2023-02-28T17:04:14.292Z,21.34
2023-02-28T17:20:13.550Z,21.16
2023-02-28T18:10:13.327Z,20.75
2023-02-28T18:11:13.352Z,20.74
2023-02-28T18:12:13.411Z,20.72
2023-02-28T18:13:13.412Z,20.72
2023-02-28T18:14:13.462Z,20.71
2023-02-28T18:15:13.540Z,20.71
2023-02-28T18:16:13.560Z,20.70
2023-02-28T18:17:13.563Z,20.69
2023-02-28T18:18:13.617Z,20.68
2023-02-28T18:19:13.633Z,20.69
2023-02-28T18:20:13.682Z,20.67
2023-02-28T18:21:13.701Z,20.67
2023-02-28T18:22:13.743Z,20.65
2023-02-28T18:23:13.770Z,20.65
2023-02-28T18:24:13.879Z,20.64
2023-02-28T18:25:13.818Z,20.63
2023-02-28T18:26:13.865Z,20.63
2023-02-28T18:27:14.586Z,20.63
2023-02-28T18:43:14.123Z,20.55
2023-02-28T18:44:19.748Z,20.54
2023-02-28T18:46:14.122Z,20.54
2023-02-28T18:47:14.045Z,20.54
2023-02-28T18:48:14.020Z,20.54
2023-02-28T18:49:13.982Z,20.54
2023-02-28T18:50:13.951Z,20.55
2023-02-28T18:51:13.923Z,20.55
2023-02-28T18:52:13.879Z,20.55
2023-02-28T18:53:13.834Z,20.56
2023-02-28T18:54:13.810Z,20.56
2023-02-28T18:55:13.820Z,20.56
2023-02-28T18:56:13.851Z,20.56
2023-02-28T18:57:13.852Z,20.56
2023-02-28T18:58:13.854Z,20.56
2023-02-28T18:59:13.857Z,20.56
2023-02-28T19:00:13.889Z,20.56
2023-02-28T19:01:13.921Z,20.56
2023-02-28T19:02:13.953Z,20.57
2023-02-28T19:03:13.893Z,20.56
2023-02-28T19:04:14.052Z,20.57
2023-02-28T19:05:13.891Z,20.57
2023-02-28T19:06:13.968Z,20.57
2023-02-28T19:07:13.872Z,20.56
2023-02-28T19:08:13.866Z,20.56
2023-02-28T19:09:13.873Z,20.56
2023-02-28T19:10:13.869Z,20.57
2023-02-28T19:11:13.854Z,20.57
2023-02-28T19:12:13.815Z,20.57
2023-02-28T19:13:13.823Z,20.57
2023-02-28T19:14:13.838Z,20.57
2023-02-28T19:15:14.101Z,20.57
2023-02-28T19:16:13.887Z,20.57
2023-02-28T19:17:13.863Z,20.57
2023-02-28T19:18:13.959Z,20.57
2023-02-28T19:19:13.878Z,20.57
2023-02-28T19:20:13.897Z,20.56
2023-02-28T19:21:13.891Z,20.56
2023-02-28T19:22:13.871Z,20.56
2023-02-28T19:23:13.863Z,20.57
2023-02-28T19:24:13.912Z,20.57
2023-02-28T19:25:13.798Z,20.57
2023-02-28T19:26:14.685Z,20.56
2023-02-28T19:27:13.785Z,20.56
2023-02-28T19:28:13.806Z,20.56
2023-02-28T19:29:13.839Z,20.55
2023-02-28T19:30:13.853Z,20.55
2023-02-28T19:31:13.910Z,20.55
2023-02-28T19:32:13.958Z,20.55
2023-02-28T19:33:13.881Z,20.54
2023-02-28T19:39:13.958Z,20.54
2023-02-28T19:40:13.948Z,20.53
2023-02-28T19:41:13.916Z,20.53
2023-02-28T19:42:13.878Z,20.53
2023-02-28T19:43:13.839Z,20.53
2023-02-28T19:44:13.890Z,20.53
2023-02-28T19:45:13.784Z,20.52
2023-02-28T19:46:13.800Z,20.52
2023-02-28T19:47:13.722Z,20.52
2023-02-28T19:48:13.679Z,20.52
2023-02-28T19:49:13.671Z,20.52
2023-02-28T19:50:13.632Z,20.52
2023-02-28T19:51:13.675Z,20.51
2023-02-28T19:52:15.533Z,20.51
2023-02-28T19:53:13.626Z,20.51
2023-02-28T19:54:13.626Z,20.51
2023-02-28T19:55:13.633Z,20.51
2023-02-28T19:56:13.606Z,20.51
2023-02-28T19:57:13.640Z,20.51
2023-02-28T19:58:13.640Z,20.50
2023-02-28T19:59:21.309Z,20.50
2023-02-28T20:00:14.597Z,20.49
2023-02-28T20:01:13.603Z,20.49
2023-02-28T20:02:13.542Z,20.50
2023-02-28T20:03:13.548Z,20.49
2023-02-28T20:04:13.529Z,20.49
2023-02-28T20:05:13.474Z,20.49
2023-02-28T20:06:13.434Z,20.49
2023-02-28T20:07:13.395Z,20.49
2023-02-28T20:08:13.381Z,20.48
2023-02-28T20:09:13.400Z,20.48
2023-02-28T20:10:13.439Z,20.47
2023-02-28T20:11:13.410Z,20.48
2023-02-28T20:12:23.383Z,20.47
2023-02-28T20:13:15.374Z,20.47
2023-02-28T20:21:13.627Z,20.47
2023-02-28T21:06:12.012Z,20.41
2023-02-28T21:07:11.983Z,20.40
2023-02-28T21:08:11.953Z,20.41
2023-02-28T21:09:11.932Z,20.40
2023-02-28T21:10:11.939Z,20.40
2023-02-28T21:11:11.879Z,20.40
2023-02-28T21:12:11.856Z,20.40
2023-02-28T21:13:11.839Z,20.40
2023-02-28T21:14:11.807Z,20.39
2023-02-28T21:15:11.793Z,20.39
2023-02-28T21:16:11.805Z,20.40
2023-02-28T21:17:11.744Z,20.38
2023-02-28T21:18:11.773Z,20.39
2023-02-28T21:19:11.708Z,20.38
2023-02-28T21:21:11.711Z,20.39
2023-02-28T21:22:11.617Z,20.38
